createdAt,value
2023-04-30T00:00:10.555Z,99.90
2023-04-30T00:02:57.809Z,99.90
2023-04-30T00:05:25.357Z,99.90
2023-04-30T00:07:52.370Z,99.90
2023-04-30T00:10:19.625Z,99.90
2023-04-30T00:12:46.618Z,99.90
2023-04-30T00:15:13.887Z,99.90
2023-04-30T00:17:40.919Z,99.90
2023-04-30T00:20:08.659Z,99.90
2023-04-30T00:22:35.766Z,99.90
2023-04-30T00:25:03.209Z,99.90
2023-04-30T00:27:31.685Z,99.90
2023-04-30T00:29:59.209Z,99.90
2023-04-30T00:32:26.463Z,99.90
2023-04-30T00:34:54.273Z,99.90
2023-04-30T00:37:21.264Z,99.90
2023-04-30T00:39:48.666Z,97.50
2023-04-30T00:42:15.666Z,94.50
2023-04-30T00:44:42.944Z,91.10
2023-04-30T00:47:10.170Z,90.00
2023-04-30T00:49:37.691Z,79.50
2023-04-30T00:52:05.148Z,72.60
2023-04-30T00:54:35.370Z,78.80
2023-04-30T00:57:05.104Z,81.90
2023-04-30T00:59:33.115Z,72.30
2023-04-30T01:02:01.092Z,77.40
2023-04-30T01:04:29.115Z,71.40
2023-04-30T01:06:56.879Z,72.90
2023-04-30T01:09:24.353Z,70.30
2023-04-30T01:12:18.536Z,65.30
2023-04-30T01:15:09.110Z,44.70
2023-04-30T01:17:55.717Z,40.40
2023-04-30T01:20:24.658Z,29.20
2023-04-30T01:23:14.285Z,25.80
2023-04-30T01:25:57.039Z,31.40
2023-04-30T01:28:24.927Z,28.70
2023-04-30T01:30:52.979Z,9.00
2023-04-30T01:33:20.348Z,18.70
2023-04-30T01:36:06.666Z,22.20
2023-04-30T01:39:15.595Z,24.00
2023-04-30T01:42:16.469Z,28.20
2023-04-30T01:44:55.462Z,17.70
2023-04-30T01:47:40.524Z,12.80
2023-04-30T01:50:15.742Z,3.90
2023-04-30T01:53:03.127Z,9.40
2023-04-30T01:55:35.239Z,3.00
2023-04-30T01:58:07.097Z,4.30
2023-04-30T02:00:34.105Z,13.00
2023-04-30T02:03:01.611Z,19.80
2023-04-30T02:05:30.166Z,25.80
2023-04-30T02:07:57.609Z,34.00
2023-04-30T02:10:27.291Z,33.90
2023-04-30T02:12:54.831Z,36.80
2023-04-30T02:15:21.935Z,31.60
2023-04-30T02:17:49.345Z,26.50
2023-04-30T02:20:16.587Z,21.70
2023-04-30T02:22:43.900Z,20.20
2023-04-30T02:25:12.487Z,21.70
2023-04-30T02:27:40.468Z,22.00
2023-04-30T02:30:08.429Z,21.00
2023-04-30T02:32:36.138Z,17.90
2023-04-30T02:35:03.424Z,13.20
2023-04-30T02:37:31.046Z,16.60
2023-04-30T02:39:58.295Z,16.20
2023-04-30T02:42:26.229Z,15.70
2023-04-30T02:44:53.314Z,19.30
2023-04-30T02:47:20.691Z,24.30
2023-04-30T02:49:47.734Z,26.50
2023-04-30T02:52:15.199Z,30.00
2023-04-30T02:54:42.966Z,29.30
2023-04-30T02:57:10.556Z,35.70
2023-04-30T02:59:38.768Z,36.10
2023-04-30T03:02:06.777Z,38.40
2023-04-30T03:04:33.822Z,37.30
2023-04-30T03:07:01.268Z,38.00
2023-04-30T03:09:28.374Z,37.70
2023-04-30T03:11:55.677Z,36.20
2023-04-30T03:14:22.758Z,40.30
2023-04-30T03:16:50.016Z,42.90
2023-04-30T03:19:17.593Z,61.10
2023-04-30T03:21:44.999Z,68.70
2023-04-30T03:24:12.129Z,62.90
2023-04-30T03:26:39.668Z,64.10
2023-04-30T03:29:06.678Z,63.10
2023-04-30T03:31:34.147Z,52.20
2023-04-30T03:34:01.181Z,41.80
2023-04-30T03:36:28.478Z,36.60
2023-04-30T03:38:55.501Z,32.10
2023-04-30T03:41:24.262Z,24.70
2023-04-30T03:43:51.248Z,14.60
2023-04-30T03:46:18.662Z,11.60
2023-04-30T03:48:45.881Z,2.20
2023-04-30T03:51:13.189Z,1.00
2023-04-30T03:53:40.484Z,1.00
2023-04-30T03:56:08.133Z,1.00
2023-04-30T03:58:35.168Z,1.00
2023-04-30T04:01:02.490Z,1.00
2023-04-30T04:03:29.585Z,1.00
2023-04-30T04:05:57.238Z,1.00
2023-04-30T04:08:24.538Z,99.90
2023-04-30T04:10:52.042Z,82.00
2023-04-30T04:13:19.026Z,99.90
2023-04-30T04:15:46.698Z,99.90
2023-04-30T04:18:13.834Z,99.90
2023-04-30T04:20:41.496Z,99.90
2023-04-30T04:23:08.714Z,99.90
2023-04-30T04:25:35.966Z,99.90
2023-04-30T04:28:03.027Z,99.90
2023-04-30T04:30:30.645Z,99.90
2023-04-30T04:32:58.611Z,99.90
2023-04-30T04:35:26.020Z,99.90
2023-04-30T04:37:53.250Z,99.90
2023-04-30T04:40:20.923Z,99.90
2023-04-30T04:42:51.493Z,99.90
2023-04-30T04:45:20.635Z,99.90
2023-04-30T04:47:49.224Z,99.90
2023-04-30T04:50:17.292Z,99.90
2023-04-30T04:52:44.579Z,99.90
2023-04-30T04:55:12.290Z,99.90
2023-04-30T04:57:39.591Z,99.90
2023-04-30T05:00:08.214Z,99.90
2023-04-30T05:02:35.332Z,99.90
2023-04-30T05:05:03.461Z,99.90
2023-04-30T05:07:30.715Z,99.90
2023-04-30T05:09:59.091Z,99.90
2023-04-30T05:12:31.090Z,99.90
2023-04-30T05:14:58.568Z,99.90
2023-04-30T05:17:26.564Z,99.90
2023-04-30T05:19:54.486Z,99.90
2023-04-30T05:22:22.118Z,99.90
2023-04-30T05:24:49.612Z,99.90
2023-04-30T05:27:17.116Z,99.90
2023-04-30T05:29:44.403Z,99.90
2023-04-30T05:32:11.546Z,99.90
2023-04-30T05:34:38.909Z,99.90
2023-04-30T05:37:06.005Z,99.90
2023-04-30T05:39:33.327Z,99.90
2023-04-30T05:42:00.433Z,99.90
2023-04-30T05:44:30.379Z,99.90
2023-04-30T05:46:57.999Z,99.90
2023-04-30T05:49:26.505Z,99.90
2023-04-30T05:51:53.803Z,99.90
2023-04-30T05:54:21.151Z,99.90
2023-04-30T05:56:48.241Z,99.90
2023-04-30T05:59:15.824Z,99.90
2023-04-30T06:01:43.342Z,99.90
2023-04-30T06:04:11.734Z,99.90
2023-04-30T06:06:38.865Z,99.90
2023-04-30T06:09:06.472Z,99.90
2023-04-30T06:11:33.505Z,99.90
2023-04-30T06:14:01.241Z,99.90
2023-04-30T06:16:29.316Z,99.90
2023-04-30T06:18:56.851Z,99.90
2023-04-30T06:21:26.817Z,99.90
2023-04-30T06:23:54.139Z,99.90
2023-04-30T06:26:21.272Z,99.90
2023-04-30T06:28:48.622Z,99.90
2023-04-30T06:31:18.674Z,99.90
2023-04-30T06:33:46.044Z,99.90
2023-04-30T06:36:13.413Z,99.90
2023-04-30T06:38:41.656Z,99.90
2023-04-30T06:41:09.084Z,99.90
2023-04-30T06:43:36.444Z,99.90
2023-04-30T06:46:03.952Z,99.90
2023-04-30T06:48:31.392Z,99.90
2023-04-30T06:50:58.811Z,99.90
2023-04-30T06:53:26.282Z,99.90
2023-04-30T06:55:53.538Z,99.90
2023-04-30T06:58:20.890Z,99.90
2023-04-30T07:00:49.489Z,99.90
2023-04-30T07:03:17.195Z,99.90
2023-04-30T07:05:47.478Z,99.90
2023-04-30T07:08:15.275Z,99.90
2023-04-30T07:10:42.641Z,99.90
2023-04-30T07:13:09.927Z,99.90
2023-04-30T07:15:41.380Z,99.90
2023-04-30T07:18:10.162Z,99.90
2023-04-30T07:20:37.428Z,99.90
2023-04-30T07:23:04.775Z,99.90
2023-04-30T07:25:32.459Z,99.90
2023-04-30T07:27:59.731Z,99.90
2023-04-30T07:30:26.776Z,99.90
2023-04-30T07:32:54.219Z,99.90
2023-04-30T07:35:22.658Z,99.90
2023-04-30T07:37:49.896Z,99.90
2023-04-30T07:40:25.494Z,99.90
2023-04-30T07:43:02.051Z,99.90
2023-04-30T07:45:29.362Z,99.90
2023-04-30T07:47:56.841Z,99.90
2023-04-30T07:50:23.970Z,99.90
2023-04-30T07:52:51.202Z,99.90
2023-04-30T07:55:18.240Z,99.90
2023-04-30T07:57:46.267Z,99.90
2023-04-30T08:00:14.812Z,99.90
2023-04-30T08:02:45.683Z,99.90
2023-04-30T08:05:12.893Z,99.90
2023-04-30T08:07:41.473Z,99.90
2023-04-30T08:10:08.743Z,99.90
2023-04-30T08:12:38.510Z,99.90
2023-04-30T08:15:07.920Z,99.90
2023-04-30T08:17:36.006Z,99.90
2023-04-30T08:20:07.392Z,99.90
2023-04-30T08:22:34.798Z,99.90
2023-04-30T08:25:02.365Z,99.90
2023-04-30T08:27:31.894Z,99.90
2023-04-30T08:30:02.122Z,99.90
2023-04-30T08:32:30.627Z,99.90
2023-04-30T08:34:57.745Z,99.90
2023-04-30T08:37:25.128Z,99.90
2023-04-30T08:39:52.267Z,99.90
2023-04-30T08:42:25.006Z,99.90
2023-04-30T08:44:52.202Z,99.90
2023-04-30T08:47:22.025Z,99.90
2023-04-30T08:49:49.242Z,99.90
2023-04-30T08:52:16.885Z,99.90
2023-04-30T08:54:44.979Z,99.90
2023-04-30T08:57:12.513Z,99.90
2023-04-30T08:59:39.944Z,99.90
2023-04-30T09:02:07.909Z,99.90
2023-04-30T09:04:35.010Z,99.90
2023-04-30T09:07:05.578Z,99.90
2023-04-30T09:09:39.019Z,99.90
2023-04-30T09:12:17.795Z,99.90
2023-04-30T09:15:09.600Z,99.90
2023-04-30T09:17:37.391Z,99.90
2023-04-30T09:20:08.950Z,99.90
2023-04-30T09:22:37.790Z,99.90
2023-04-30T09:25:05.953Z,99.90
2023-04-30T09:27:33.483Z,99.90
2023-04-30T09:30:02.382Z,99.90
2023-04-30T09:32:29.969Z,99.90
2023-04-30T09:34:57.033Z,99.90
2023-04-30T09:37:37.021Z,99.90
2023-04-30T09:40:04.607Z,99.90
2023-04-30T09:42:33.167Z,99.90
2023-04-30T09:45:00.380Z,99.90
2023-04-30T09:47:31.931Z,99.90
2023-04-30T09:50:00.718Z,99.90
2023-04-30T09:52:28.431Z,99.90
2023-04-30T09:54:55.683Z,99.90
2023-04-30T09:57:24.307Z,99.90
2023-04-30T09:59:53.430Z,99.90
2023-04-30T10:02:26.383Z,99.90
2023-04-30T10:04:58.794Z,99.90
2023-04-30T10:07:31.262Z,99.90
2023-04-30T10:10:10.042Z,99.90
2023-04-30T10:12:48.560Z,99.90
2023-04-30T10:15:20.490Z,99.90
2023-04-30T10:17:53.505Z,99.90
2023-04-30T10:20:22.786Z,99.90
2023-04-30T10:22:50.450Z,99.90
2023-04-30T10:25:17.730Z,99.90
2023-04-30T10:27:46.239Z,99.90
2023-04-30T10:30:14.346Z,99.90
2023-04-30T10:32:53.229Z,99.90
2023-04-30T10:35:27.766Z,99.90
2023-04-30T10:38:07.693Z,99.90
2023-04-30T10:40:38.843Z,99.90
2023-04-30T10:43:06.461Z,99.90
2023-04-30T10:45:37.994Z,99.90
2023-04-30T10:48:07.050Z,99.90
2023-04-30T10:50:45.019Z,99.90
2023-04-30T10:53:17.435Z,99.90
2023-04-30T10:55:57.257Z,99.90
2023-04-30T10:58:31.309Z,99.90
2023-04-30T11:01:11.990Z,99.90
2023-04-30T11:03:43.216Z,99.90
2023-04-30T11:06:15.032Z,99.90
2023-04-30T11:08:46.900Z,99.90
2023-04-30T11:11:21.359Z,99.90
2023-04-30T11:13:59.750Z,99.90
2023-04-30T11:16:36.195Z,99.90
2023-04-30T11:19:11.877Z,99.90
2023-04-30T11:22:01.019Z,99.90
2023-04-30T11:25:00.275Z,99.90
2023-04-30T11:27:36.365Z,99.90
2023-04-30T11:30:11.691Z,99.90
2023-04-30T11:32:39.779Z,99.90
2023-04-30T11:35:08.490Z,99.90
2023-04-30T11:37:37.864Z,99.90
2023-04-30T11:40:11.162Z,99.90
2023-04-30T11:42:39.648Z,99.90
2023-04-30T11:45:09.517Z,99.90
2023-04-30T11:47:49.748Z,99.90
2023-04-30T11:50:19.512Z,99.90
2023-04-30T11:52:51.411Z,99.90
2023-04-30T11:55:20.819Z,99.90
2023-04-30T11:57:50.270Z,99.90
2023-04-30T12:00:20.024Z,99.90
2023-04-30T12:02:49.529Z,99.90
2023-04-30T12:05:25.638Z,99.90
2023-04-30T12:08:00.988Z,99.90
2023-04-30T12:10:32.922Z,99.90
2023-04-30T12:13:00.205Z,99.90
2023-04-30T12:15:29.127Z,99.90
2023-04-30T12:17:57.995Z,99.90
2023-04-30T12:20:29.410Z,99.90
2023-04-30T12:22:58.470Z,99.90
2023-04-30T12:25:29.006Z,99.90
2023-04-30T12:27:58.893Z,99.90
2023-04-30T12:30:27.105Z,99.90
2023-04-30T12:32:58.245Z,99.90
2023-04-30T12:35:28.619Z,99.90
2023-04-30T12:38:03.163Z,99.90
2023-04-30T12:40:31.006Z,99.90
2023-04-30T12:43:08.720Z,99.90
2023-04-30T12:45:55.256Z,99.90
2023-04-30T12:48:26.215Z,99.90
2023-04-30T12:50:55.518Z,99.90
2023-04-30T12:53:24.084Z,99.90
2023-04-30T12:56:17.499Z,99.90
2023-04-30T12:58:47.568Z,99.90
2023-04-30T13:01:19.334Z,99.90
2023-04-30T13:03:46.596Z,99.90
2023-04-30T13:06:14.598Z,99.90
2023-04-30T13:08:56.793Z,99.90
2023-04-30T13:11:27.949Z,99.90
2023-04-30T13:13:57.849Z,99.90
2023-04-30T13:16:25.875Z,99.90
2023-04-30T13:18:53.759Z,99.90
2023-04-30T13:21:24.917Z,99.90
2023-04-30T13:23:54.051Z,99.90
2023-04-30T13:26:23.474Z,99.90
2023-04-30T13:28:51.226Z,99.90
2023-04-30T13:31:18.813Z,99.90
2023-04-30T13:33:46.226Z,99.90
2023-04-30T13:36:13.871Z,99.90
2023-04-30T13:38:41.692Z,99.90
2023-04-30T13:41:09.506Z,99.90
2023-04-30T13:43:41.449Z,99.90
2023-04-30T13:46:09.794Z,99.90
2023-04-30T13:48:37.087Z,99.90
2023-04-30T13:51:04.499Z,99.90
2023-04-30T13:53:31.571Z,99.90
2023-04-30T13:56:01.371Z,99.90
2023-04-30T13:58:28.768Z,99.90
2023-04-30T14:00:56.761Z,99.90
2023-04-30T14:07:14.253Z,99.90
2023-04-30T14:09:44.442Z,99.90
2023-04-30T14:12:13.342Z,99.90
2023-04-30T14:14:40.434Z,99.90
2023-04-30T14:17:07.997Z,99.90
2023-04-30T14:19:35.761Z,99.90
2023-04-30T14:22:03.104Z,99.90
2023-04-30T14:24:33.237Z,99.90
2023-04-30T14:27:01.701Z,99.90
2023-04-30T14:29:28.808Z,99.90
2023-04-30T14:31:56.236Z,99.90
2023-04-30T14:34:24.502Z,99.90
2023-04-30T14:36:52.968Z,99.90
2023-04-30T14:39:19.987Z,99.90
2023-04-30T14:41:48.636Z,99.90
2023-04-30T14:44:15.606Z,99.90
2023-04-30T14:46:48.835Z,99.90
2023-04-30T14:49:15.932Z,99.90
2023-04-30T14:51:43.724Z,99.90
2023-04-30T14:54:11.839Z,99.90
2023-04-30T14:56:39.115Z,99.90
2023-04-30T14:59:06.145Z,99.90
2023-04-30T15:01:35.095Z,99.90
2023-04-30T15:04:02.488Z,99.90
2023-04-30T15:06:31.772Z,99.90
2023-04-30T15:08:58.837Z,99.90
2023-04-30T15:11:26.255Z,99.90
2023-04-30T15:13:56.345Z,99.90
2023-04-30T15:16:24.355Z,99.90
2023-04-30T15:18:51.554Z,99.90
2023-04-30T15:21:18.906Z,99.90
2023-04-30T15:23:46.017Z,99.90
2023-04-30T15:26:13.459Z,99.90
2023-04-30T15:28:40.580Z,99.90
2023-04-30T15:31:11.398Z,99.90
2023-04-30T15:33:42.242Z,99.90
2023-04-30T15:36:13.753Z,99.90
2023-04-30T15:38:42.298Z,99.90
2023-04-30T15:41:09.841Z,99.90
2023-04-30T15:43:36.978Z,99.90
2023-04-30T15:46:05.715Z,99.90
2023-04-30T15:48:32.927Z,99.90
2023-04-30T15:51:00.328Z,99.90
2023-04-30T15:53:29.219Z,99.90
2023-04-30T15:55:57.367Z,99.90
2023-04-30T15:58:26.957Z,99.90
2023-04-30T16:00:58.620Z,99.90
2023-04-30T16:03:26.051Z,99.90
2023-04-30T16:05:54.510Z,99.90
2023-04-30T16:08:21.628Z,99.90
2023-04-30T16:10:49.015Z,99.90
2023-04-30T16:13:16.096Z,99.90
2023-04-30T16:15:43.406Z,99.90
2023-04-30T16:18:10.678Z,99.90
2023-04-30T16:20:39.140Z,99.90
2023-04-30T16:23:06.422Z,99.90
2023-04-30T16:25:33.864Z,99.90
2023-04-30T16:28:00.862Z,99.90
2023-04-30T16:30:31.783Z,99.90
2023-04-30T16:32:59.285Z,99.90
2023-04-30T16:35:26.860Z,99.90
2023-04-30T16:37:54.735Z,99.90
2023-04-30T16:40:22.299Z,99.90
2023-04-30T16:42:50.034Z,99.90
2023-04-30T16:45:17.496Z,99.90
2023-04-30T16:47:45.590Z,99.90
2023-04-30T16:50:13.000Z,99.90
2023-04-30T16:52:40.090Z,99.90
2023-04-30T16:55:10.562Z,99.90
2023-04-30T16:57:40.280Z,99.90
2023-04-30T17:00:08.624Z,99.90
2023-04-30T17:02:36.681Z,99.90
2023-04-30T17:05:04.917Z,99.90
2023-04-30T17:07:31.994Z,99.90
2023-04-30T17:09:59.545Z,99.90
2023-04-30T17:12:27.426Z,99.90
2023-04-30T17:14:56.928Z,99.90
2023-04-30T17:17:24.200Z,99.90
2023-04-30T17:19:51.491Z,99.90
2023-04-30T17:22:20.172Z,99.90
2023-04-30T17:24:47.793Z,99.90
2023-04-30T17:27:15.116Z,99.90
2023-04-30T17:29:42.673Z,99.90
2023-04-30T17:32:11.213Z,99.90
2023-04-30T17:34:39.797Z,99.90
2023-04-30T17:37:07.182Z,99.90
2023-04-30T17:39:36.885Z,99.90
2023-04-30T17:42:04.769Z,99.90
2023-04-30T17:44:33.674Z,99.90
2023-04-30T17:47:00.725Z,99.90
2023-04-30T17:49:28.698Z,99.90
2023-04-30T17:51:58.365Z,99.90
2023-04-30T17:54:26.075Z,99.90
2023-04-30T17:56:56.767Z,99.90
2023-04-30T17:59:30.004Z,99.90
2023-04-30T18:01:57.189Z,99.90
2023-04-30T18:04:25.760Z,99.90
2023-04-30T18:06:53.018Z,99.90
2023-04-30T18:09:20.992Z,99.90
2023-04-30T18:11:48.239Z,99.90
2023-04-30T18:14:15.665Z,99.90
2023-04-30T18:16:42.716Z,99.90
2023-04-30T18:19:10.498Z,99.90
2023-04-30T18:21:41.618Z,99.90
2023-04-30T18:24:09.018Z,99.90
2023-04-30T18:26:37.524Z,99.90
2023-04-30T18:29:05.320Z,99.90
2023-04-30T18:31:32.741Z,99.90
2023-04-30T18:34:00.184Z,99.90
2023-04-30T18:36:28.216Z,99.90
2023-04-30T18:38:55.801Z,99.90
2023-04-30T18:41:25.753Z,99.90
2023-04-30T18:43:53.075Z,99.90
2023-04-30T18:46:20.346Z,99.90
2023-04-30T18:48:47.937Z,99.90
2023-04-30T18:51:15.253Z,99.90
2023-04-30T18:53:45.255Z,99.90
2023-04-30T18:56:13.190Z,99.90
2023-04-30T18:58:45.769Z,99.90
2023-04-30T19:01:12.831Z,99.90
2023-04-30T19:03:41.554Z,99.90
2023-04-30T19:06:09.485Z,99.90
2023-04-30T19:08:37.025Z,99.90
2023-04-30T19:11:09.747Z,99.90
2023-04-30T19:13:37.110Z,99.90
2023-04-30T19:16:04.931Z,99.90
2023-04-30T19:18:33.621Z,99.90
2023-04-30T19:21:02.216Z,99.90
2023-04-30T19:23:30.468Z,99.90
2023-04-30T19:25:59.010Z,99.90
2023-04-30T19:28:26.632Z,99.90
2023-04-30T19:30:55.017Z,99.90
2023-04-30T19:33:24.101Z,99.90
2023-04-30T19:35:55.196Z,99.90
2023-04-30T19:38:22.703Z,99.90
2023-04-30T19:40:54.751Z,99.90
2023-04-30T19:43:23.644Z,99.90
2023-04-30T19:45:55.978Z,99.90
2023-04-30T19:48:24.583Z,99.90
2023-04-30T19:50:53.722Z,99.90
2023-04-30T19:53:21.747Z,99.90
2023-04-30T19:55:48.965Z,99.90
2023-04-30T19:58:16.463Z,1.00
2023-04-30T20:00:45.447Z,1.00
2023-04-30T20:03:14.848Z,1.00
2023-04-30T20:05:44.856Z,1.00
2023-04-30T20:08:12.483Z,1.00
2023-04-30T20:10:41.013Z,22.90
2023-04-30T20:13:11.272Z,2.80
2023-04-30T20:15:40.784Z,5.70
2023-04-30T20:18:08.339Z,1.00
2023-04-30T20:20:35.441Z,9.60
2023-04-30T20:23:14.555Z,64.80
2023-04-30T20:25:44.961Z,39.80
2023-04-30T20:28:14.133Z,99.90
2023-04-30T20:30:43.139Z,99.90
2023-04-30T20:33:14.973Z,99.90
2023-04-30T20:35:45.521Z,99.90
2023-04-30T20:38:13.672Z,99.90
2023-04-30T20:40:41.102Z,99.90
2023-04-30T20:43:10.941Z,99.90
2023-04-30T20:45:38.239Z,99.90
2023-04-30T20:48:06.781Z,99.90
2023-04-30T20:50:34.437Z,99.90
2023-04-30T20:53:02.096Z,99.90
2023-04-30T20:55:31.584Z,99.90
2023-04-30T20:57:58.935Z,99.90
2023-04-30T21:00:26.055Z,99.90
2023-04-30T21:02:54.088Z,99.90
2023-04-30T21:05:21.332Z,99.90
2023-04-30T21:07:48.691Z,99.90
2023-04-30T21:10:16.117Z,99.90
2023-04-30T21:12:43.502Z,99.90
2023-04-30T21:15:11.044Z,99.90
2023-04-30T21:17:38.363Z,99.90
2023-04-30T21:20:06.023Z,99.90
2023-04-30T21:22:33.840Z,99.90
2023-04-30T21:25:00.922Z,99.90
2023-04-30T21:27:28.519Z,1.00
2023-04-30T21:29:55.867Z,1.00
2023-04-30T21:32:23.578Z,1.00
2023-04-30T21:34:50.733Z,99.90
2023-04-30T21:37:18.310Z,1.00
2023-04-30T21:39:45.372Z,23.40
2023-04-30T21:42:12.816Z,99.90
2023-04-30T21:44:39.978Z,99.90
2023-04-30T21:47:08.699Z,99.90
2023-04-30T21:49:35.831Z,99.90
2023-04-30T21:52:07.855Z,55.70
2023-04-30T21:54:37.457Z,38.70
2023-04-30T21:57:05.089Z,1.00
2023-04-30T21:59:34.453Z,1.00
2023-04-30T22:02:07.304Z,85.60
2023-04-30T22:04:40.362Z,99.90
2023-04-30T22:07:08.106Z,99.90
2023-04-30T22:09:35.307Z,99.90
2023-04-30T22:12:04.675Z,99.90
2023-04-30T22:14:32.043Z,99.90
2023-04-30T22:16:59.285Z,99.90
2023-04-30T22:19:26.692Z,99.90
2023-04-30T22:21:54.196Z,99.90
2023-04-30T22:24:21.242Z,1.00
2023-04-30T22:26:49.780Z,99.90
2023-04-30T22:29:17.061Z,99.90
2023-04-30T22:31:47.244Z,99.90
2023-04-30T22:34:15.573Z,99.90
2023-04-30T22:36:44.602Z,99.90
2023-04-30T22:39:11.889Z,1.00
2023-04-30T22:41:39.296Z,99.90
2023-04-30T22:44:06.468Z,99.90
2023-04-30T22:46:34.858Z,1.00
2023-04-30T22:49:02.054Z,99.90
2023-04-30T22:51:29.893Z,99.90
2023-04-30T22:53:57.098Z,99.90
2023-04-30T22:56:24.525Z,99.90
2023-04-30T22:58:51.630Z,99.90
2023-04-30T23:01:20.040Z,99.90
2023-04-30T23:03:47.231Z,99.90
2023-04-30T23:06:14.701Z,99.90
2023-04-30T23:08:41.848Z,99.90
2023-04-30T23:11:10.543Z,99.90
2023-04-30T23:13:38.586Z,99.90
2023-04-30T23:16:08.847Z,99.90
2023-04-30T23:18:38.753Z,99.90
2023-04-30T23:21:06.961Z,92.20
2023-04-30T23:23:35.316Z,34.00
2023-04-30T23:26:04.260Z,1.00
2023-04-30T23:28:31.483Z,99.90
2023-04-30T23:30:59.125Z,99.90
2023-04-30T23:33:27.051Z,99.90
2023-04-30T23:35:54.725Z,99.90
2023-04-30T23:38:22.059Z,99.90
2023-04-30T23:40:49.345Z,99.90
2023-04-30T23:43:16.286Z,1.00
2023-04-30T23:45:43.555Z,1.00
2023-04-30T23:48:10.664Z,99.90
2023-04-30T23:50:38.325Z,99.90
2023-04-30T23:53:05.648Z,99.90
2023-04-30T23:55:33.942Z,99.90
2023-04-30T23:58:01.492Z,99.90
